createdAt,value
2023-02-22T00:00:26.660Z,8.09
2023-02-22T00:02:59.871Z,8.01
2023-02-22T00:05:28.581Z,8.00
2023-02-22T00:08:00.139Z,8.00
2023-02-22T00:10:26.893Z,7.95
2023-02-22T00:12:55.381Z,8.01
2023-02-22T00:15:27.293Z,7.92
2023-02-22T00:17:54.886Z,7.69
2023-02-22T00:20:23.364Z,7.85
2023-02-22T00:22:51.726Z,7.97
2023-02-22T00:25:20.150Z,7.94
2023-02-22T00:27:48.264Z,7.96
2023-02-22T00:30:22.213Z,7.90
2023-02-22T00:32:50.287Z,7.85
2023-02-22T00:35:20.307Z,7.99
2023-02-22T00:37:52.150Z,8.03
2023-02-22T00:40:23.225Z,7.88
2023-02-22T00:42:50.202Z,7.81
2023-02-22T00:45:20.275Z,7.72
2023-02-22T00:47:46.975Z,7.07
2023-02-22T00:50:15.658Z,7.56
2023-02-22T00:52:43.004Z,7.44
2023-02-22T00:55:16.726Z,6.46
2023-02-22T00:57:43.642Z,6.40
2023-02-22T01:00:17.133Z,7.21
2023-02-22T01:02:44.677Z,7.34
2023-02-22T01:05:14.098Z,7.37
2023-02-22T01:07:41.028Z,7.51
2023-02-22T01:10:10.136Z,7.49
2023-02-22T01:12:37.715Z,7.51
2023-02-22T01:15:10.314Z,7.49
2023-02-22T01:17:38.642Z,7.50
2023-02-22T01:20:12.565Z,7.48
2023-02-22T01:22:43.968Z,7.49
2023-02-22T01:25:12.782Z,7.37
2023-02-22T01:27:39.347Z,7.46
2023-02-22T01:30:08.543Z,7.62
2023-02-22T01:32:41.563Z,7.58
2023-02-22T01:35:13.697Z,7.45
2023-02-22T01:37:41.271Z,7.32
2023-02-22T01:40:11.038Z,7.35
2023-02-22T01:42:37.590Z,7.47
2023-02-22T01:45:35.280Z,7.44
2023-02-22T01:48:12.873Z,7.54
2023-02-22T01:50:47.367Z,7.55
2023-02-22T01:53:17.538Z,7.58
2023-02-22T01:55:45.914Z,7.59
2023-02-22T01:58:14.573Z,7.56
2023-02-22T02:00:42.210Z,7.55
2023-02-22T02:03:15.025Z,7.38
2023-02-22T02:05:43.404Z,7.22
2023-02-22T02:08:24.180Z,7.19
2023-02-22T02:10:51.374Z,7.20
2023-02-22T02:13:17.915Z,7.15
2023-02-22T02:15:44.996Z,7.20
2023-02-22T02:18:13.452Z,7.18
2023-02-22T02:20:55.341Z,7.26
2023-02-22T02:23:54.973Z,7.29
2023-02-22T02:26:33.654Z,7.11
2023-02-22T02:29:00.162Z,7.35
2023-02-22T02:31:54.456Z,7.26
2023-02-22T02:34:35.578Z,7.22
2023-02-22T02:37:12.228Z,7.26
2023-02-22T02:39:49.730Z,7.17
2023-02-22T02:42:23.277Z,7.04
2023-02-22T02:44:58.394Z,6.85
2023-02-22T02:47:30.160Z,6.72
2023-02-22T02:50:10.134Z,6.90
2023-02-22T02:52:39.953Z,7.08
2023-02-22T02:55:08.032Z,7.05
2023-02-22T02:57:34.655Z,7.10
2023-02-22T03:00:01.234Z,7.15
2023-02-22T03:02:30.832Z,7.03
2023-02-22T03:05:34.188Z,7.06
2023-02-22T03:08:15.995Z,7.13
2023-02-22T03:10:51.323Z,7.07
2023-02-22T03:13:55.626Z,6.89
2023-02-22T03:16:32.540Z,6.92
2023-02-22T03:19:26.276Z,7.01
2023-02-22T03:22:16.927Z,6.93
2023-02-22T03:24:55.520Z,6.81
2023-02-22T03:27:33.601Z,6.63
2023-02-22T03:30:09.579Z,6.64
2023-02-22T03:32:41.158Z,6.54
2023-02-22T03:35:09.351Z,6.46
2023-02-22T03:37:42.422Z,6.52
2023-02-22T03:40:14.945Z,6.59
2023-02-22T03:42:51.796Z,6.57
2023-02-22T03:45:23.346Z,6.48
2023-02-22T03:47:58.432Z,6.51
2023-02-22T03:50:35.610Z,6.57
2023-02-22T03:53:02.956Z,6.51
2023-02-22T03:55:32.191Z,6.46
2023-02-22T03:58:03.430Z,6.41
2023-02-22T04:00:34.153Z,6.56
2023-02-22T04:03:01.666Z,6.19
2023-02-22T04:05:28.474Z,5.98
2023-02-22T04:07:57.256Z,5.89
2023-02-22T04:10:24.926Z,5.99
2023-02-22T04:12:51.901Z,5.99
2023-02-22T04:15:21.921Z,6.01
2023-02-22T04:17:52.186Z,5.89
2023-02-22T04:20:19.942Z,5.89
2023-02-22T04:22:58.882Z,5.94
2023-02-22T04:25:26.151Z,5.58
2023-02-22T04:27:53.015Z,5.45
2023-02-22T04:30:30.092Z,5.44
2023-02-22T04:32:57.505Z,5.52
2023-02-22T04:35:24.448Z,5.52
2023-02-22T04:37:52.149Z,5.25
2023-02-22T04:40:19.197Z,5.44
2023-02-22T04:42:47.634Z,5.48
2023-02-22T04:45:14.741Z,5.36
2023-02-22T04:47:41.359Z,5.39
2023-02-22T04:50:11.135Z,5.77
2023-02-22T04:52:37.744Z,5.80
2023-02-22T04:55:05.586Z,5.58
2023-02-22T04:57:32.862Z,5.10
2023-02-22T04:59:59.556Z,5.57
2023-02-22T05:02:26.517Z,5.76
2023-02-22T05:04:53.212Z,5.77
2023-02-22T05:07:19.799Z,5.45
2023-02-22T05:09:46.375Z,5.04
2023-02-22T05:12:12.996Z,5.00
2023-02-22T05:14:39.707Z,5.47
2023-02-22T05:17:06.393Z,5.62
2023-02-22T05:19:33.258Z,5.69
2023-02-22T05:22:00.188Z,5.97
2023-02-22T05:24:26.803Z,5.98
2023-02-22T05:26:53.409Z,5.74
2023-02-22T05:29:21.002Z,6.07
2023-02-22T05:31:47.919Z,6.10
2023-02-22T05:34:15.775Z,6.06
2023-02-22T05:36:42.402Z,5.93
2023-02-22T05:39:09.096Z,5.81
2023-02-22T05:41:35.697Z,5.83
2023-02-22T05:44:03.047Z,5.80
2023-02-22T05:46:29.771Z,5.80
2023-02-22T05:48:56.337Z,5.90
2023-02-22T05:51:23.121Z,5.95
2023-02-22T05:53:52.105Z,6.00
2023-02-22T05:56:27.190Z,5.86
2023-02-22T05:58:54.218Z,5.80
2023-02-22T06:01:21.604Z,5.76
2023-02-22T06:03:49.578Z,5.82
2023-02-22T06:06:16.944Z,5.89
2023-02-22T06:08:45.802Z,5.78
2023-02-22T06:11:13.080Z,5.60
2023-02-22T06:13:39.777Z,5.65
2023-02-22T06:16:07.437Z,5.90
2023-02-22T06:18:34.123Z,5.75
2023-02-22T06:21:00.868Z,5.76
2023-02-22T06:23:27.534Z,5.91
2023-02-22T06:25:54.492Z,5.81
2023-02-22T06:28:21.100Z,5.79
2023-02-22T06:30:47.746Z,5.64
2023-02-22T06:33:15.201Z,5.62
2023-02-22T06:35:41.829Z,5.75
2023-02-22T06:38:08.767Z,5.78
2023-02-22T06:40:35.306Z,5.35
2023-02-22T06:43:01.875Z,5.65
2023-02-22T06:45:28.519Z,5.91
2023-02-22T06:47:55.660Z,6.03
2023-02-22T06:50:24.063Z,5.95
2023-02-22T06:52:50.864Z,5.59
2023-02-22T06:55:29.352Z,5.65
2023-02-22T06:57:56.450Z,6.05
2023-02-22T07:00:25.255Z,6.17
2023-02-22T07:02:52.777Z,6.28
2023-02-22T07:05:21.437Z,6.19
2023-02-22T07:07:49.504Z,6.29
2023-02-22T07:10:24.132Z,6.32
2023-02-22T07:12:52.439Z,6.45
2023-02-22T07:15:24.314Z,6.33
2023-02-22T07:17:52.101Z,6.30
2023-02-22T07:20:20.647Z,6.11
2023-02-22T07:22:48.317Z,5.96
2023-02-22T07:25:14.953Z,5.63
2023-02-22T07:27:43.036Z,5.65
2023-02-22T07:30:20.103Z,5.60
2023-02-22T07:32:47.339Z,5.17
2023-02-22T07:35:30.134Z,5.03
2023-02-22T07:37:57.295Z,5.16
2023-02-22T07:40:24.983Z,4.97
2023-02-22T07:43:00.754Z,4.80
2023-02-22T07:45:32.629Z,5.07
2023-02-22T07:48:00.861Z,5.40
2023-02-22T07:50:31.285Z,5.28
2023-02-22T07:53:00.013Z,4.98
2023-02-22T07:55:29.026Z,4.97
2023-02-22T07:57:58.700Z,5.31
2023-02-22T08:00:29.074Z,5.74
2023-02-22T08:02:56.242Z,5.47
2023-02-22T08:05:26.214Z,5.23
2023-02-22T08:07:52.837Z,5.10
2023-02-22T08:10:22.343Z,5.24
2023-02-22T08:12:49.438Z,5.32
2023-02-22T08:15:20.578Z,5.30
2023-02-22T08:17:47.167Z,5.40
2023-02-22T08:20:13.969Z,5.53
2023-02-22T08:22:44.083Z,5.77
2023-02-22T08:25:11.765Z,6.10
2023-02-22T08:27:38.417Z,6.01
2023-02-22T08:30:06.102Z,6.17
2023-02-22T08:32:33.107Z,6.34
2023-02-22T08:35:01.199Z,6.28
2023-02-22T08:37:27.794Z,6.26
2023-02-22T08:39:56.079Z,6.10
2023-02-22T08:42:22.662Z,6.04
2023-02-22T08:44:49.286Z,6.53
2023-02-22T08:47:15.838Z,6.42
2023-02-22T08:49:42.396Z,6.61
2023-02-22T08:52:09.158Z,6.52
2023-02-22T08:54:35.728Z,6.64
2023-02-22T08:57:02.315Z,6.63
2023-02-22T08:59:28.951Z,6.63
2023-02-22T09:01:55.567Z,6.77
2023-02-22T09:04:22.159Z,6.81
2023-02-22T09:06:51.736Z,6.77
2023-02-22T09:09:21.223Z,6.77
2023-02-22T09:11:52.956Z,6.93
2023-02-22T09:14:19.775Z,6.99
2023-02-22T09:16:46.408Z,7.18
2023-02-22T09:19:14.238Z,7.40
2023-02-22T09:21:40.979Z,7.59
2023-02-22T09:24:08.749Z,7.71
2023-02-22T09:26:39.335Z,7.69
2023-02-22T09:29:09.665Z,7.90
2023-02-22T09:31:40.510Z,7.98
2023-02-22T09:34:15.706Z,7.87
2023-02-22T09:36:43.481Z,7.99
2023-02-22T09:39:11.285Z,8.06
2023-02-22T09:41:51.037Z,8.17
2023-02-22T09:44:17.632Z,8.33
2023-02-22T09:46:45.916Z,8.54
2023-02-22T09:49:15.168Z,8.54
2023-02-22T09:52:16.933Z,8.72
2023-02-22T09:55:04.708Z,8.97
2023-02-22T09:57:37.207Z,9.01
2023-02-22T10:00:13.720Z,9.09
2023-02-22T10:02:54.714Z,9.15
2023-02-22T10:05:29.314Z,9.15
2023-02-22T10:08:05.862Z,9.21
2023-02-22T10:10:36.750Z,9.34
2023-02-22T10:13:42.082Z,9.15
2023-02-22T10:16:18.642Z,9.20
2023-02-22T10:18:50.083Z,9.32
2023-02-22T10:21:19.555Z,9.41
2023-02-22T10:24:02.173Z,9.68
2023-02-22T10:26:35.143Z,9.99
2023-02-22T10:29:14.709Z,10.23
2023-02-22T10:31:46.908Z,10.39
2023-02-22T10:34:23.547Z,10.60
2023-02-22T10:36:55.485Z,10.45
2023-02-22T10:39:34.083Z,10.39
2023-02-22T10:42:06.771Z,10.54
2023-02-22T10:44:37.660Z,10.68
2023-02-22T10:47:08.178Z,10.95
2023-02-22T10:49:39.956Z,10.89
2023-02-22T10:52:14.840Z,11.03
2023-02-22T10:54:45.665Z,11.15
2023-02-22T10:57:13.901Z,11.00
2023-02-22T10:59:45.243Z,11.12
2023-02-22T11:02:21.444Z,11.26
2023-02-22T11:04:53.322Z,11.32
2023-02-22T11:07:24.666Z,11.39
2023-02-22T11:09:57.694Z,11.55
2023-02-22T11:12:33.329Z,11.57
2023-02-22T11:15:24.104Z,11.66
2023-02-22T11:17:52.896Z,11.58
2023-02-22T11:20:25.542Z,11.58
2023-02-22T11:22:58.567Z,11.59
2023-02-22T11:25:31.522Z,11.67
2023-02-22T11:28:10.341Z,11.64
2023-02-22T11:30:38.290Z,11.93
2023-02-22T11:33:23.386Z,12.33
2023-02-22T11:35:55.814Z,12.25
2023-02-22T11:38:32.181Z,12.22
2023-02-22T11:41:11.921Z,12.18
2023-02-22T11:43:38.494Z,12.38
2023-02-22T11:46:08.360Z,12.47
2023-02-22T11:48:39.417Z,12.36
2023-02-22T11:51:29.053Z,12.48
2023-02-22T11:54:08.036Z,12.52
2023-02-22T11:56:40.672Z,12.57
2023-02-22T11:59:29.485Z,12.65
2023-02-22T12:02:04.805Z,12.79
2023-02-22T12:04:52.689Z,13.04
2023-02-22T12:07:29.961Z,13.15
2023-02-22T12:10:26.440Z,13.19
2023-02-22T12:13:05.226Z,13.40
2023-02-22T12:15:37.443Z,13.44
2023-02-22T12:18:22.780Z,13.59
2023-02-22T12:21:00.472Z,13.64
2023-02-22T12:23:50.612Z,13.57
2023-02-22T12:26:26.170Z,13.48
2023-02-22T12:29:01.284Z,13.56
2023-02-22T12:31:36.440Z,13.44
2023-02-22T12:34:29.088Z,13.44
2023-02-22T12:37:07.721Z,13.42
2023-02-22T12:39:54.374Z,13.79
2023-02-22T12:42:29.257Z,13.91
2023-02-22T12:45:05.125Z,13.93
2023-02-22T12:47:45.922Z,13.99
2023-02-22T12:50:29.288Z,14.06
2023-02-22T12:53:16.855Z,13.86
2023-02-22T12:55:50.488Z,14.02
2023-02-22T12:58:30.423Z,14.35
2023-02-22T13:01:01.756Z,13.97
2023-02-22T13:03:54.323Z,14.14
2023-02-22T13:06:48.590Z,14.28
2023-02-22T13:09:24.343Z,14.29
2023-02-22T13:12:03.591Z,14.33
2023-02-22T13:14:52.454Z,14.40
2023-02-22T13:18:01.299Z,14.51
2023-02-22T13:20:39.285Z,14.44
2023-02-22T13:23:19.851Z,14.59
2023-02-22T13:25:59.554Z,14.20
2023-02-22T13:28:33.278Z,14.49
2023-02-22T13:31:21.323Z,14.52
2023-02-22T13:34:16.394Z,14.58
2023-02-22T13:37:08.830Z,14.29
2023-02-22T13:40:00.041Z,14.60
2023-02-22T13:42:43.934Z,14.79
2023-02-22T13:45:37.705Z,14.53
2023-02-22T13:48:22.668Z,14.68
2023-02-22T13:51:16.516Z,14.90
2023-02-22T13:53:56.030Z,14.82
2023-02-22T13:56:24.217Z,14.70
2023-02-22T13:58:58.480Z,14.97
2023-02-22T14:01:41.536Z,15.12
2023-02-22T14:04:29.466Z,15.05
2023-02-22T14:07:00.810Z,15.10
2023-02-22T14:09:45.496Z,15.22
2023-02-22T14:12:30.208Z,15.10
2023-02-22T14:15:28.577Z,15.00
2023-02-22T14:18:04.937Z,14.92
2023-02-22T14:20:40.132Z,15.09
2023-02-22T14:23:40.737Z,15.05
2023-02-22T14:26:15.682Z,14.91
2023-02-22T14:28:51.569Z,14.86
2023-02-22T14:31:35.981Z,14.75
2023-02-22T14:34:07.097Z,14.97
2023-02-22T14:36:37.502Z,14.92
2023-02-22T14:39:13.850Z,14.71
2023-02-22T14:41:46.678Z,14.70
2023-02-22T14:44:16.511Z,14.89
2023-02-22T14:46:49.931Z,15.19
2023-02-22T14:49:22.829Z,14.93
2023-02-22T14:51:55.314Z,14.92
2023-02-22T14:54:32.867Z,15.03
2023-02-22T14:57:14.767Z,15.11
2023-02-22T15:00:19.720Z,14.88
2023-02-22T15:02:48.457Z,15.03
2023-02-22T15:05:19.517Z,15.31
2023-02-22T15:07:55.712Z,14.68
2023-02-22T15:10:42.966Z,14.59
2023-02-22T15:13:18.631Z,14.96
2023-02-22T15:15:49.427Z,14.72
2023-02-22T15:18:24.196Z,14.80
2023-02-22T15:20:56.209Z,15.00
2023-02-22T15:23:30.291Z,15.05
2023-02-22T15:25:57.998Z,14.66
2023-02-22T15:28:29.068Z,14.29
2023-02-22T15:31:15.812Z,14.47
2023-02-22T15:33:42.565Z,14.28
2023-02-22T15:36:15.871Z,14.42
2023-02-22T15:38:49.149Z,14.52
2023-02-22T15:41:28.907Z,14.52
2023-02-22T15:44:22.811Z,14.44
2023-02-22T15:46:50.601Z,14.67
2023-02-22T15:49:23.320Z,14.70
2023-02-22T15:52:02.991Z,14.86
2023-02-22T15:54:31.226Z,14.82
2023-02-22T15:56:57.777Z,14.56
2023-02-22T15:59:30.314Z,14.64
2023-02-22T16:01:59.240Z,14.05
2023-02-22T16:04:31.366Z,14.34
2023-02-22T16:07:16.807Z,14.52
2023-02-22T16:09:49.747Z,14.22
2023-02-22T16:12:22.004Z,14.49
2023-02-22T16:14:49.908Z,14.57
2023-02-22T16:17:25.531Z,14.54
2023-02-22T16:19:53.041Z,14.16
2023-02-22T16:22:33.960Z,13.82
2023-02-22T16:25:18.581Z,13.80
2023-02-22T16:27:49.186Z,13.69
2023-02-22T16:30:24.362Z,13.82
2023-02-22T16:32:53.959Z,13.82
2023-02-22T16:35:20.829Z,13.60
2023-02-22T16:37:49.462Z,13.68
2023-02-22T16:40:32.098Z,13.53
2023-02-22T16:43:03.526Z,13.41
2023-02-22T16:45:29.975Z,13.37
2023-02-22T16:47:56.586Z,13.49
2023-02-22T16:50:23.790Z,13.56
2023-02-22T16:52:53.753Z,13.57
2023-02-22T16:55:21.016Z,13.57
2023-02-22T16:57:49.422Z,13.68
2023-02-22T17:00:31.119Z,13.57
2023-02-22T17:03:06.314Z,13.25
2023-02-22T17:05:36.733Z,13.24
2023-02-22T17:08:04.240Z,13.41
2023-02-22T17:10:30.793Z,13.17
2023-02-22T17:12:58.009Z,13.21
2023-02-22T17:15:32.930Z,13.23
2023-02-22T17:17:59.593Z,13.17
2023-02-22T17:20:32.028Z,13.13
2023-02-22T17:23:00.828Z,13.06
2023-02-22T17:25:32.080Z,12.88
2023-02-22T17:27:58.792Z,12.68
2023-02-22T17:30:26.019Z,12.51
2023-02-22T17:32:52.902Z,12.78
2023-02-22T17:35:23.080Z,12.75
2023-02-22T17:37:50.346Z,12.09
2023-02-22T17:40:17.530Z,11.81
2023-02-22T17:42:45.092Z,11.96
2023-02-22T17:45:13.910Z,11.86
2023-02-22T17:47:42.642Z,11.71
2023-02-22T17:50:11.302Z,11.46
2023-02-22T17:52:38.643Z,11.89
2023-02-22T17:55:05.664Z,11.86
2023-02-22T17:57:32.277Z,11.74
2023-02-22T17:59:59.826Z,11.59
2023-02-22T18:02:27.042Z,11.83
2023-02-22T18:04:53.674Z,11.80
2023-02-22T18:07:20.230Z,11.59
2023-02-22T18:09:47.004Z,11.34
2023-02-22T18:12:13.946Z,11.48
2023-02-22T18:14:40.689Z,11.49
2023-02-22T18:17:07.787Z,11.43
2023-02-22T18:19:34.438Z,11.37
2023-02-22T18:22:02.952Z,11.30
2023-02-22T18:24:34.358Z,11.37
2023-02-22T18:27:01.443Z,11.41
2023-02-22T18:29:28.902Z,11.45
2023-02-22T18:31:56.317Z,11.38
2023-02-22T18:34:26.224Z,11.37
2023-02-22T18:36:52.773Z,11.27
2023-02-22T18:39:19.378Z,11.11
2023-02-22T18:41:48.572Z,11.38
2023-02-22T18:44:16.120Z,11.47
2023-02-22T18:46:46.003Z,11.16
2023-02-22T18:49:14.042Z,11.61
2023-02-22T18:51:43.466Z,11.69
2023-02-22T18:54:12.268Z,11.91
2023-02-22T18:56:40.268Z,12.03
2023-02-22T18:59:11.999Z,11.96
2023-02-22T19:01:40.273Z,11.93
2023-02-22T19:04:12.453Z,11.89
2023-02-22T19:06:39.302Z,11.05
2023-02-22T19:09:09.474Z,11.11
2023-02-22T19:11:36.942Z,11.65
2023-02-22T19:14:05.129Z,11.64
2023-02-22T19:16:32.792Z,11.62
2023-02-22T19:18:59.499Z,11.38
2023-02-22T19:21:28.095Z,11.50
2023-02-22T19:24:00.007Z,11.85
2023-02-22T19:26:28.991Z,11.76
2023-02-22T19:28:57.445Z,11.65
2023-02-22T19:31:31.599Z,11.59
2023-02-22T19:34:08.830Z,11.25
2023-02-22T19:36:38.641Z,11.40
2023-02-22T19:39:05.211Z,11.39
2023-02-22T19:41:31.760Z,11.02
2023-02-22T19:43:58.469Z,11.17
2023-02-22T19:46:25.429Z,11.42
2023-02-22T19:48:53.372Z,11.57
2023-02-22T19:51:25.223Z,11.49
2023-02-22T19:53:52.727Z,11.31
2023-02-22T19:56:26.818Z,10.75
2023-02-22T19:58:55.083Z,10.62
2023-02-22T20:01:24.300Z,11.19
2023-02-22T20:03:57.484Z,11.47
2023-02-22T20:06:27.962Z,11.36
2023-02-22T20:08:56.076Z,11.53
2023-02-22T20:11:23.998Z,11.66
2023-02-22T20:13:50.575Z,11.55
2023-02-22T20:16:17.282Z,11.53
2023-02-22T20:18:48.204Z,11.37
2023-02-22T20:21:33.313Z,11.36
2023-02-22T20:24:06.738Z,11.32
2023-02-22T20:26:35.802Z,11.24
2023-02-22T20:29:04.079Z,11.18
2023-02-22T20:31:31.724Z,11.19
2023-02-22T20:34:00.315Z,11.14
2023-02-22T20:36:28.389Z,11.13
2023-02-22T20:38:59.873Z,11.21
2023-02-22T20:41:29.438Z,11.11
2023-02-22T20:43:56.828Z,11.24
2023-02-22T20:46:25.113Z,11.26
2023-02-22T20:48:56.026Z,11.35
2023-02-22T20:51:23.394Z,11.41
2023-02-22T20:53:50.198Z,11.41
2023-02-22T20:56:19.679Z,11.38
2023-02-22T20:58:46.292Z,11.26
2023-02-22T21:01:16.941Z,11.25
2023-02-22T21:03:43.993Z,11.24
2023-02-22T21:06:15.240Z,11.20
2023-02-22T21:08:49.100Z,11.00
2023-02-22T21:11:17.997Z,10.76
2023-02-22T21:13:44.751Z,10.72
2023-02-22T21:16:18.526Z,10.46
2023-02-22T21:18:45.264Z,10.54
2023-02-22T21:21:12.455Z,10.21
2023-02-22T21:23:40.452Z,10.22
2023-02-22T21:26:12.847Z,10.18
2023-02-22T21:28:50.863Z,10.11
2023-02-22T21:31:20.642Z,10.12
2023-02-22T21:33:50.375Z,10.09
2023-02-22T21:36:18.101Z,10.03
2023-02-22T21:38:48.528Z,10.64
2023-02-22T21:41:17.401Z,10.29
2023-02-22T21:43:48.492Z,10.53
2023-02-22T21:46:15.174Z,10.33
2023-02-22T21:48:48.933Z,10.14
2023-02-22T21:51:19.302Z,10.45
2023-02-22T21:53:48.065Z,10.50
2023-02-22T21:56:18.904Z,10.77
2023-02-22T21:58:46.965Z,10.80
2023-02-22T22:01:17.160Z,10.73
2023-02-22T22:03:45.812Z,10.92
2023-02-22T22:06:13.921Z,10.79
2023-02-22T22:08:41.915Z,10.73
2023-02-22T22:11:09.807Z,10.73
2023-02-22T22:13:39.186Z,10.96
2023-02-22T22:16:09.593Z,10.97
2023-02-22T22:18:38.209Z,10.23
2023-02-22T22:21:19.715Z,10.27
2023-02-22T22:23:47.220Z,10.68
2023-02-22T22:26:16.384Z,9.92
2023-02-22T22:28:48.664Z,9.60
2023-02-22T22:31:17.416Z,9.91
2023-02-22T22:33:45.315Z,10.42
2023-02-22T22:36:13.491Z,10.51
2023-02-22T22:38:40.066Z,10.69
2023-02-22T22:41:08.408Z,10.70
2023-02-22T22:43:36.921Z,10.61
2023-02-22T22:46:05.765Z,10.75
2023-02-22T22:48:36.048Z,10.77
2023-02-22T22:51:09.826Z,10.60
2023-02-22T22:53:42.402Z,10.70
2023-02-22T22:56:19.109Z,10.84
2023-02-22T22:58:51.278Z,10.79
2023-02-22T23:01:20.517Z,10.23
2023-02-22T23:03:54.725Z,10.04
2023-02-22T23:06:26.489Z,9.89
2023-02-22T23:09:25.248Z,9.95
2023-02-22T23:11:55.010Z,10.14
2023-02-22T23:14:31.008Z,10.54
2023-02-22T23:17:03.145Z,10.34
2023-02-22T23:19:36.716Z,10.23
2023-02-22T23:22:05.414Z,10.26
2023-02-22T23:24:36.106Z,10.37
2023-02-22T23:27:07.118Z,10.45
2023-02-22T23:29:37.154Z,10.54
2023-02-22T23:32:05.957Z,10.58
2023-02-22T23:34:33.397Z,10.57
2023-02-22T23:36:59.957Z,10.62
2023-02-22T23:39:27.202Z,10.61
2023-02-22T23:41:59.186Z,10.56
2023-02-22T23:44:27.096Z,10.47
2023-02-22T23:46:55.614Z,10.46
2023-02-22T23:49:25.531Z,10.54
2023-02-22T23:51:52.607Z,10.49
2023-02-22T23:54:20.548Z,10.24
2023-02-22T23:56:56.313Z,10.24
2023-02-22T23:59:25.738Z,9.83
